createdAt,value
2019-01-29T00:00:55.121Z,276.42
2019-01-29T00:03:24.605Z,296.82
2019-01-29T00:05:54.178Z,292.05
2019-01-29T00:08:23.981Z,298.50
2019-01-29T00:10:53.397Z,284.70
2019-01-29T00:13:22.887Z,319.50
2019-01-29T00:15:52.357Z,311.05
2019-01-29T00:18:21.805Z,309.98
2019-01-29T00:20:51.291Z,289.60
2019-01-29T00:23:20.757Z,314.72
2019-01-29T00:25:50.217Z,273.40
2019-01-29T00:28:19.631Z,268.63
2019-01-29T00:30:49.194Z,280.25
2019-01-29T00:33:18.621Z,266.80
2019-01-29T00:35:48.069Z,257.07
2019-01-29T00:38:17.497Z,272.82
2019-01-29T00:40:46.991Z,240.00
2019-01-29T00:43:16.425Z,237.85
2019-01-29T00:45:45.914Z,216.63
2019-01-29T00:48:15.521Z,218.80
2019-01-29T00:50:45.080Z,221.85
2019-01-29T00:53:14.493Z,204.60
2019-01-29T00:55:43.957Z,217.37
2019-01-29T00:58:13.625Z,214.23
2019-01-29T01:00:43.082Z,224.05
2019-01-29T01:03:12.512Z,218.85
2019-01-29T01:05:42.300Z,215.18
2019-01-29T01:08:11.757Z,214.37
2019-01-29T01:10:41.204Z,234.95
2019-01-29T01:13:10.668Z,200.00
2019-01-29T01:15:40.166Z,210.30
2019-01-29T01:18:09.700Z,201.30
2019-01-29T01:20:39.188Z,195.28
2019-01-29T01:23:08.653Z,197.37
2019-01-29T01:25:38.133Z,200.80
2019-01-29T01:28:07.610Z,209.95
2019-01-29T01:30:37.067Z,196.65
2019-01-29T01:33:06.552Z,191.62
2019-01-29T01:35:36.017Z,186.40
2019-01-29T01:38:05.518Z,208.17
2019-01-29T01:40:34.936Z,190.73
2019-01-29T01:43:04.382Z,187.20
2019-01-29T01:45:33.860Z,179.75
2019-01-29T01:48:03.320Z,192.03
2019-01-29T01:50:32.765Z,220.47
2019-01-29T01:53:02.281Z,211.57
2019-01-29T01:55:31.830Z,201.25
2019-01-29T01:58:01.286Z,213.03
2019-01-29T02:00:30.748Z,255.27
2019-01-29T02:03:00.180Z,235.75
2019-01-29T02:05:29.618Z,236.92
2019-01-29T02:07:59.067Z,250.33
2019-01-29T02:10:30.367Z,284.60
2019-01-29T02:12:59.780Z,291.68
2019-01-29T02:15:29.246Z,381.67
2019-01-29T02:17:58.705Z,328.37
2019-01-29T02:20:28.192Z,328.73
2019-01-29T02:22:57.747Z,473.02
2019-01-29T02:25:27.190Z,549.02
2019-01-29T02:27:56.634Z,347.93
2019-01-29T02:30:26.245Z,445.27
2019-01-29T02:32:55.706Z,311.68
2019-01-29T02:35:25.150Z,353.12
2019-01-29T02:37:54.670Z,313.52
2019-01-29T02:40:26.575Z,464.25
2019-01-29T02:42:56.105Z,472.63
2019-01-29T02:45:26.094Z,513.25
2019-01-29T02:47:55.577Z,575.02
2019-01-29T02:50:25.021Z,541.40
2019-01-29T02:52:54.481Z,513.93
2019-01-29T02:55:23.928Z,487.65
2019-01-29T02:57:53.353Z,472.82
2019-01-29T03:00:24.945Z,515.35
2019-01-29T03:02:54.465Z,559.57
2019-01-29T03:05:24.036Z,517.92
2019-01-29T03:07:53.736Z,568.17
2019-01-29T03:10:26.649Z,526.95
2019-01-29T03:12:56.088Z,593.70
2019-01-29T03:15:32.863Z,658.90
2019-01-29T03:18:02.578Z,897.45
2019-01-29T03:20:32.046Z,1038.35
2019-01-29T03:23:01.524Z,837.30
2019-01-29T03:25:30.966Z,883.68
2019-01-29T03:28:00.401Z,751.05
2019-01-29T03:30:29.881Z,666.52
2019-01-29T03:32:59.322Z,559.08
2019-01-29T03:35:28.833Z,531.95
2019-01-29T03:37:58.273Z,385.57
2019-01-29T03:40:28.479Z,334.73
2019-01-29T03:42:57.915Z,305.90
2019-01-29T03:45:27.459Z,343.42
2019-01-29T03:47:56.991Z,311.27
2019-01-29T03:50:26.521Z,314.40
2019-01-29T03:52:55.965Z,281.38
2019-01-29T03:55:25.445Z,307.52
2019-01-29T03:57:54.878Z,290.90
2019-01-29T04:00:26.521Z,198.68
2019-01-29T04:02:56.060Z,225.72
2019-01-29T04:05:25.506Z,243.02
2019-01-29T04:07:54.953Z,247.22
2019-01-29T04:10:24.444Z,267.15
2019-01-29T04:12:53.878Z,274.62
2019-01-29T04:15:23.337Z,266.95
2019-01-29T04:17:57.921Z,231.17
2019-01-29T04:20:27.603Z,264.75
2019-01-29T04:22:57.048Z,241.38
2019-01-29T04:25:26.514Z,250.50
2019-01-29T04:27:56.005Z,301.42
2019-01-29T04:30:25.996Z,302.87
2019-01-29T04:32:55.478Z,300.60
2019-01-29T04:35:24.888Z,254.32
2019-01-29T04:37:54.405Z,276.65
2019-01-29T04:40:24.095Z,301.95
2019-01-29T04:42:53.499Z,329.20
2019-01-29T04:45:22.957Z,321.37
2019-01-29T04:47:52.446Z,253.60
2019-01-29T04:50:23.120Z,216.68
2019-01-29T04:52:53.137Z,241.48
2019-01-29T04:55:22.624Z,228.58
2019-01-29T04:57:52.070Z,208.20
2019-01-29T05:00:26.439Z,196.93
2019-01-29T05:02:55.986Z,235.30
2019-01-29T05:05:25.436Z,236.20
2019-01-29T05:07:54.945Z,255.10
2019-01-29T05:10:24.508Z,264.17
2019-01-29T05:12:53.997Z,243.78
2019-01-29T05:15:23.468Z,270.55
2019-01-29T05:17:52.898Z,282.73
2019-01-29T05:20:23.284Z,294.57
2019-01-29T05:22:52.724Z,271.05
2019-01-29T05:25:22.264Z,246.90
2019-01-29T05:27:51.678Z,246.72
2019-01-29T05:30:23.264Z,265.12
2019-01-29T05:32:53.121Z,239.93
2019-01-29T05:35:22.691Z,213.03
2019-01-29T05:37:52.152Z,240.57
2019-01-29T05:40:23.065Z,233.20
2019-01-29T05:42:52.616Z,264.68
2019-01-29T05:45:22.934Z,242.80
2019-01-29T05:47:52.598Z,233.55
2019-01-29T05:50:22.257Z,187.82
2019-01-29T05:52:52.186Z,193.80
2019-01-29T05:55:21.654Z,201.42
2019-01-29T05:57:51.402Z,288.57
2019-01-29T06:00:24.473Z,305.48
2019-01-29T06:02:53.979Z,290.02
2019-01-29T06:05:23.525Z,279.90
2019-01-29T06:07:53.015Z,256.90
2019-01-29T06:10:22.428Z,258.32
2019-01-29T06:12:51.907Z,250.25
2019-01-29T06:15:21.353Z,242.80
2019-01-29T06:17:51.200Z,182.83
2019-01-29T06:20:22.655Z,198.95
2019-01-29T06:22:52.237Z,190.65
2019-01-29T06:25:21.669Z,161.52
2019-01-29T06:27:51.214Z,157.25
2019-01-29T06:30:21.233Z,152.25
2019-01-29T06:32:50.681Z,157.85
2019-01-29T06:35:20.388Z,171.10
2019-01-29T06:37:49.808Z,168.03
2019-01-29T06:40:24.214Z,186.82
2019-01-29T06:42:53.720Z,179.87
2019-01-29T06:45:23.351Z,179.05
2019-01-29T06:47:52.975Z,163.97
2019-01-29T06:50:24.177Z,160.65
2019-01-29T06:52:53.773Z,167.70
2019-01-29T06:55:23.440Z,144.35
2019-01-29T06:57:55.406Z,144.97
2019-01-29T07:00:27.464Z,139.15
2019-01-29T07:02:58.019Z,139.60
2019-01-29T07:05:27.739Z,138.07
2019-01-29T07:07:57.209Z,148.22
2019-01-29T07:10:27.082Z,149.05
2019-01-29T07:12:56.553Z,150.90
2019-01-29T07:16:01.044Z,139.30
2019-01-29T07:18:52.256Z,136.22
2019-01-29T07:21:21.735Z,140.90
2019-01-29T07:23:51.173Z,141.00
2019-01-29T07:26:20.660Z,131.95
2019-01-29T07:28:50.145Z,141.30
2019-01-29T07:31:19.570Z,137.52
2019-01-29T07:33:49.074Z,141.57
2019-01-29T07:36:18.860Z,140.20
2019-01-29T07:38:48.356Z,137.28
2019-01-29T07:41:17.782Z,132.30
2019-01-29T07:43:47.328Z,125.93
2019-01-29T07:46:16.776Z,129.82
2019-01-29T07:48:46.248Z,127.78
2019-01-29T07:51:15.834Z,131.37
2019-01-29T07:53:45.304Z,124.83
2019-01-29T07:56:14.777Z,115.40
2019-01-29T07:58:44.588Z,116.00
2019-01-29T08:01:14.040Z,119.02
2019-01-29T08:03:43.459Z,108.80
2019-01-29T08:06:12.942Z,120.75
2019-01-29T08:08:42.385Z,120.35
2019-01-29T08:11:11.818Z,117.30
2019-01-29T08:13:41.276Z,116.73
2019-01-29T08:16:10.727Z,116.90
2019-01-29T08:18:40.202Z,115.27
2019-01-29T08:21:09.635Z,115.28
2019-01-29T08:23:39.055Z,114.08
2019-01-29T08:26:08.495Z,121.15
2019-01-29T08:28:37.933Z,115.80
2019-01-29T08:31:07.431Z,117.65
2019-01-29T08:33:36.988Z,122.45
2019-01-29T08:36:06.555Z,121.13
2019-01-29T08:38:36.017Z,125.80
2019-01-29T08:41:05.582Z,137.63
2019-01-29T08:43:35.050Z,119.42
2019-01-29T08:46:04.609Z,127.70
2019-01-29T08:48:34.084Z,127.60
2019-01-29T08:51:03.866Z,124.80
2019-01-29T08:53:33.281Z,122.20
2019-01-29T08:56:03.041Z,124.62
2019-01-29T08:58:32.635Z,122.00
2019-01-29T09:01:02.119Z,122.25
2019-01-29T09:03:31.537Z,123.00
2019-01-29T09:06:01.033Z,118.20
2019-01-29T09:08:30.522Z,128.45
2019-01-29T09:10:59.993Z,117.47
2019-01-29T09:13:29.409Z,121.30
2019-01-29T09:15:58.927Z,118.53
2019-01-29T09:18:28.503Z,116.15
2019-01-29T09:20:57.949Z,117.10
2019-01-29T09:23:27.491Z,110.12
2019-01-29T09:25:56.999Z,109.52
2019-01-29T09:28:26.409Z,105.17
2019-01-29T09:30:55.850Z,115.00
2019-01-29T09:33:25.341Z,446.70
2019-01-29T09:35:54.767Z,101.75
2019-01-29T09:38:24.187Z,93.15
2019-01-29T09:40:53.722Z,104.97
2019-01-29T09:43:23.241Z,94.95
2019-01-29T09:45:52.702Z,98.33
2019-01-29T09:48:22.135Z,86.42
2019-01-29T09:50:51.622Z,91.87
2019-01-29T09:53:21.036Z,84.67
2019-01-29T09:55:50.685Z,80.70
2019-01-29T09:58:20.169Z,84.83
2019-01-29T10:00:49.606Z,79.35
2019-01-29T10:03:19.029Z,77.05
2019-01-29T10:05:48.503Z,77.67
2019-01-29T10:08:17.948Z,73.45
2019-01-29T10:10:47.415Z,74.12
2019-01-29T10:13:17.109Z,78.73
2019-01-29T10:15:46.576Z,72.90
2019-01-29T10:18:18.742Z,72.87
2019-01-29T10:20:48.195Z,73.80
2019-01-29T10:23:17.688Z,73.87
2019-01-29T10:25:47.162Z,70.33
2019-01-29T10:28:16.648Z,67.45
2019-01-29T10:30:46.044Z,70.12
2019-01-29T10:33:15.816Z,66.37
2019-01-29T10:35:45.362Z,67.67
2019-01-29T10:38:15.038Z,70.25
2019-01-29T10:40:44.500Z,72.67
2019-01-29T10:43:13.917Z,72.25
2019-01-29T10:45:43.350Z,86.53
2019-01-29T10:48:12.822Z,97.12
2019-01-29T10:50:42.266Z,197.62
2019-01-29T10:53:11.725Z,68.70
2019-01-29T10:55:47.008Z,68.92
2019-01-29T10:58:12.366Z,68.20
2019-01-29T11:00:42.042Z,68.52
2019-01-29T11:03:12.360Z,71.50
2019-01-29T11:05:42.022Z,69.83
2019-01-29T11:08:11.549Z,65.60
2019-01-29T11:10:40.986Z,63.25
2019-01-29T11:13:10.466Z,55.60
2019-01-29T11:15:41.795Z,53.07
2019-01-29T11:18:15.604Z,49.42
2019-01-29T11:20:45.178Z,43.08
2019-01-29T11:23:14.758Z,43.13
2019-01-29T11:25:44.219Z,44.03
2019-01-29T11:28:13.673Z,39.98
2019-01-29T11:30:43.456Z,45.25
2019-01-29T11:33:13.117Z,36.17
2019-01-29T11:35:42.638Z,27.15
2019-01-29T11:38:12.249Z,36.35
2019-01-29T11:40:41.795Z,41.53
2019-01-29T11:43:11.431Z,50.45
2019-01-29T11:45:43.765Z,46.90
2019-01-29T11:48:14.709Z,50.83
2019-01-29T11:50:45.129Z,42.13
2019-01-29T11:53:14.636Z,40.00
2019-01-29T11:55:44.101Z,38.02
2019-01-29T11:58:13.575Z,153.85
2019-01-29T12:01:04.748Z,59.27
2019-01-29T12:03:34.223Z,68.20
2019-01-29T12:06:03.967Z,213.67
2019-01-29T12:08:33.599Z,476.93
2019-01-29T12:11:03.036Z,347.03
2019-01-29T12:13:32.535Z,48.45
2019-01-29T12:16:02.006Z,71.40
2019-01-29T12:18:31.486Z,111.22
2019-01-29T12:21:00.958Z,130.27
2019-01-29T12:23:30.472Z,62.48
2019-01-29T12:26:00.043Z,43.70
2019-01-29T12:28:29.557Z,42.65
2019-01-29T12:30:59.056Z,53.08
2019-01-29T12:33:28.611Z,37.00
2019-01-29T12:35:58.068Z,36.37
2019-01-29T12:38:27.615Z,26.10
2019-01-29T12:40:57.092Z,28.27
2019-01-29T12:43:26.674Z,33.88
2019-01-29T12:45:56.181Z,30.30
2019-01-29T12:48:25.682Z,33.10
2019-01-29T12:50:59.000Z,33.90
2019-01-29T12:53:39.548Z,35.92
2019-01-29T12:56:09.037Z,33.10
2019-01-29T12:58:38.580Z,31.37
2019-01-29T13:01:08.109Z,31.90
2019-01-29T13:03:37.528Z,34.05
2019-01-29T13:06:07.038Z,34.20
2019-01-29T13:08:36.468Z,34.55
2019-01-29T13:11:06.672Z,34.67
2019-01-29T13:13:36.234Z,26.37
2019-01-29T13:16:05.641Z,29.77
2019-01-29T13:18:35.148Z,35.20
2019-01-29T13:21:04.801Z,33.38
2019-01-29T13:23:34.306Z,30.90
2019-01-29T13:26:03.762Z,165.77
2019-01-29T13:28:33.250Z,198.05
2019-01-29T13:31:02.913Z,128.80
2019-01-29T13:33:32.346Z,81.82
2019-01-29T13:36:01.861Z,97.70
2019-01-29T13:38:31.363Z,144.75
2019-01-29T13:41:00.868Z,91.53
2019-01-29T13:43:30.329Z,38.40
2019-01-29T13:46:00.056Z,29.25
2019-01-29T13:48:29.601Z,30.30
2019-01-29T13:51:00.668Z,27.32
2019-01-29T13:53:30.167Z,31.48
2019-01-29T13:55:59.658Z,28.45
2019-01-29T13:58:29.080Z,33.85
2019-01-29T14:00:58.585Z,28.47
2019-01-29T14:03:28.019Z,34.13
2019-01-29T14:05:57.492Z,35.23
2019-01-29T14:08:26.989Z,37.60
2019-01-29T14:10:56.448Z,35.23
2019-01-29T14:13:25.882Z,34.37
2019-01-29T14:16:00.802Z,39.08
2019-01-29T14:18:32.269Z,35.92
2019-01-29T14:21:02.194Z,27.60
2019-01-29T14:23:31.734Z,33.67
2019-01-29T14:26:01.295Z,33.23
2019-01-29T14:28:30.765Z,27.37
2019-01-29T14:31:00.242Z,36.40
2019-01-29T14:33:29.741Z,30.92
2019-01-29T14:35:59.200Z,25.40
2019-01-29T14:39:00.222Z,30.37
2019-01-29T14:41:29.705Z,30.17
2019-01-29T14:44:00.792Z,26.48
2019-01-29T14:46:30.331Z,22.15
2019-01-29T14:48:59.685Z,29.10
2019-01-29T14:51:29.191Z,24.05
2019-01-29T14:53:58.649Z,22.58
2019-01-29T14:56:28.273Z,28.35
2019-01-29T14:58:57.813Z,25.77
2019-01-29T15:01:27.446Z,28.25
2019-01-29T15:03:57.002Z,26.23
2019-01-29T15:06:32.288Z,21.45
2019-01-29T15:08:57.792Z,21.80
2019-01-29T15:11:27.390Z,21.65
2019-01-29T15:13:56.966Z,23.45
2019-01-29T15:16:51.967Z,24.37
2019-01-29T15:19:23.827Z,21.62
2019-01-29T15:21:53.411Z,23.98
2019-01-29T15:24:23.021Z,23.55
2019-01-29T15:26:52.539Z,23.07
2019-01-29T15:29:21.960Z,25.05
2019-01-29T15:31:51.454Z,21.45
2019-01-29T15:34:20.850Z,19.82
2019-01-29T15:36:50.555Z,22.05
2019-01-29T15:39:20.256Z,26.90
2019-01-29T15:41:49.824Z,63.23
2019-01-29T15:44:19.372Z,27.77
2019-01-29T15:46:48.853Z,26.15
2019-01-29T15:49:18.638Z,26.50
2019-01-29T15:51:48.090Z,27.60
2019-01-29T15:54:17.546Z,20.23
2019-01-29T15:56:47.401Z,29.02
2019-01-29T15:59:16.886Z,25.40
2019-01-29T16:01:46.722Z,34.73
2019-01-29T16:04:16.233Z,29.50
2019-01-29T16:06:45.721Z,26.35
2019-01-29T16:09:15.290Z,30.17
2019-01-29T16:11:44.735Z,29.25
2019-01-29T16:14:14.187Z,34.50
2019-01-29T16:16:43.819Z,29.07
2019-01-29T16:19:13.512Z,37.80
2019-01-29T16:21:43.961Z,34.05
2019-01-29T16:24:13.624Z,36.00
2019-01-29T16:26:43.916Z,37.37
2019-01-29T16:29:13.371Z,43.95
2019-01-29T16:31:42.811Z,37.48
2019-01-29T16:34:12.500Z,42.23
2019-01-29T16:36:42.013Z,40.90
2019-01-29T16:39:11.490Z,47.15
2019-01-29T16:41:41.211Z,105.43
2019-01-29T16:44:10.675Z,42.27
2019-01-29T16:46:40.163Z,43.98
2019-01-29T16:49:09.792Z,44.55
2019-01-29T16:51:42.160Z,45.15
2019-01-29T16:54:10.465Z,48.95
2019-01-29T16:56:39.985Z,50.80
2019-01-29T16:59:09.440Z,52.23
2019-01-29T17:01:38.920Z,50.75
2019-01-29T17:04:08.382Z,54.73
2019-01-29T17:06:38.134Z,56.13
2019-01-29T17:09:12.167Z,55.35
2019-01-29T17:11:41.639Z,52.50
2019-01-29T17:14:11.190Z,71.22
2019-01-29T17:16:41.827Z,60.20
2019-01-29T17:19:11.367Z,58.87
2019-01-29T17:21:40.808Z,60.93
2019-01-29T17:24:10.593Z,59.30
2019-01-29T17:26:40.165Z,48.92
2019-01-29T17:29:10.032Z,62.38
2019-01-29T17:31:39.688Z,58.58
2019-01-29T17:34:09.361Z,61.80
2019-01-29T17:36:38.830Z,56.30
2019-01-29T17:39:09.598Z,63.58
2019-01-29T17:41:39.175Z,55.33
2019-01-29T17:44:11.159Z,56.45
2019-01-29T17:46:40.651Z,50.48
2019-01-29T17:49:10.260Z,54.85
2019-01-29T17:51:39.750Z,57.73
2019-01-29T17:54:09.258Z,59.65
2019-01-29T17:56:38.728Z,59.15
2019-01-29T17:59:08.600Z,56.30
2019-01-29T18:01:38.394Z,51.23
2019-01-29T18:04:08.132Z,58.08
2019-01-29T18:06:37.621Z,47.40
2019-01-29T18:09:11.438Z,52.65
2019-01-29T18:11:40.896Z,53.23
2019-01-29T18:14:10.566Z,53.67
2019-01-29T18:16:40.067Z,52.70
2019-01-29T18:19:09.530Z,49.75
2019-01-29T18:21:39.274Z,51.98
2019-01-29T18:24:08.824Z,49.60
2019-01-29T18:26:38.480Z,50.88
2019-01-29T18:29:07.980Z,52.77
2019-01-29T18:31:37.451Z,51.68
2019-01-29T18:34:06.987Z,43.35
2019-01-29T18:36:36.541Z,47.03
2019-01-29T18:39:08.672Z,52.65
2019-01-29T18:41:38.159Z,57.60
2019-01-29T18:44:08.322Z,60.28
2019-01-29T18:46:37.784Z,60.73
2019-01-29T18:49:07.524Z,60.23
2019-01-29T18:51:36.978Z,51.50
2019-01-29T18:54:06.920Z,42.33
2019-01-29T18:56:36.413Z,51.68
2019-01-29T18:59:05.841Z,65.90
2019-01-29T19:01:35.517Z,48.13
2019-01-29T19:04:05.075Z,47.78
2019-01-29T19:06:34.739Z,50.60
2019-01-29T19:09:06.358Z,53.10
2019-01-29T19:11:35.847Z,48.52
2019-01-29T19:14:05.537Z,47.27
2019-01-29T19:16:34.988Z,48.03
2019-01-29T19:19:04.774Z,35.45
2019-01-29T19:21:34.337Z,45.23
2019-01-29T19:24:04.195Z,49.00
2019-01-29T19:26:34.336Z,48.17
2019-01-29T19:29:06.410Z,45.88
2019-01-29T19:31:34.997Z,43.28
2019-01-29T19:34:04.458Z,43.20
2019-01-29T19:36:34.284Z,45.75
2019-01-29T19:39:05.965Z,47.83
2019-01-29T19:41:35.675Z,41.63
2019-01-29T19:44:05.174Z,62.62
2019-01-29T19:46:34.609Z,41.63
2019-01-29T19:49:04.700Z,42.80
2019-01-29T19:51:34.128Z,39.50
2019-01-29T19:54:03.852Z,38.80
2019-01-29T19:56:33.336Z,50.73
2019-01-29T19:59:02.975Z,42.50
2019-01-29T20:01:35.215Z,44.87
2019-01-29T20:04:04.986Z,45.85
2019-01-29T20:06:36.132Z,44.83
2019-01-29T20:09:11.392Z,48.50
2019-01-29T20:11:41.187Z,47.38
2019-01-29T20:14:10.629Z,51.28
2019-01-29T20:16:40.539Z,52.90
2019-01-29T20:19:10.033Z,53.63
2019-01-29T20:21:39.643Z,53.83
2019-01-29T20:24:09.088Z,53.63
2019-01-29T20:26:38.673Z,55.08
2019-01-29T20:29:08.313Z,51.50
2019-01-29T20:31:38.014Z,56.92
2019-01-29T20:34:07.499Z,54.10
2019-01-29T20:36:37.184Z,52.73
2019-01-29T20:39:09.261Z,55.67
2019-01-29T20:41:38.708Z,53.48
2019-01-29T20:44:08.193Z,55.38
2019-01-29T20:46:38.115Z,55.12
2019-01-29T20:49:07.677Z,57.60
2019-01-29T20:51:37.345Z,57.50
2019-01-29T20:54:06.944Z,52.15
2019-01-29T20:56:36.387Z,51.40
2019-01-29T20:59:06.025Z,59.53
2019-01-29T21:01:35.555Z,57.75
2019-01-29T21:04:05.446Z,62.70
2019-01-29T21:06:34.895Z,60.30
2019-01-29T21:09:08.020Z,58.98
2019-01-29T21:11:37.537Z,56.98
2019-01-29T21:14:07.186Z,55.30
2019-01-29T21:16:36.703Z,55.00
2019-01-29T21:19:06.899Z,60.75
2019-01-29T21:21:36.558Z,61.05
2019-01-29T21:24:06.198Z,58.13
2019-01-29T21:26:35.735Z,54.58
2019-01-29T21:29:05.539Z,57.75
2019-01-29T21:31:34.988Z,52.13
2019-01-29T21:34:04.935Z,47.85
2019-01-29T21:36:34.491Z,45.98
2019-01-29T21:39:05.923Z,51.42
2019-01-29T21:41:35.770Z,53.00
2019-01-29T21:44:05.569Z,55.80
2019-01-29T21:46:34.983Z,58.30
2019-01-29T21:49:04.647Z,53.38
2019-01-29T21:51:34.172Z,57.65
2019-01-29T21:54:03.582Z,55.60
2019-01-29T21:56:33.056Z,48.73
2019-01-29T21:59:12.912Z,51.33
2019-01-29T22:01:34.100Z,43.90
2019-01-29T22:04:03.645Z,46.87
2019-01-29T22:06:33.365Z,47.30
2019-01-29T22:09:03.728Z,46.13
2019-01-29T22:11:33.252Z,53.28
2019-01-29T22:14:02.883Z,51.88
2019-01-29T22:16:32.429Z,50.03
2019-01-29T22:19:01.931Z,47.85
2019-01-29T22:21:31.727Z,47.67
2019-01-29T22:24:01.213Z,44.03
2019-01-29T22:26:30.763Z,49.08
2019-01-29T22:29:00.285Z,45.08
2019-01-29T22:31:29.779Z,47.08
2019-01-29T22:33:59.213Z,44.08
2019-01-29T22:36:29.011Z,45.45
2019-01-29T22:38:58.885Z,46.92
2019-01-29T22:41:28.441Z,43.78
2019-01-29T22:43:57.897Z,46.95
2019-01-29T22:46:27.406Z,44.10
2019-01-29T22:48:57.046Z,43.17
2019-01-29T22:51:26.467Z,44.42
2019-01-29T22:53:55.921Z,45.63
2019-01-29T22:56:25.732Z,44.35
2019-01-29T22:58:55.251Z,45.12
2019-01-29T23:01:32.799Z,45.30
2019-01-29T23:04:19.936Z,47.80
2019-01-29T23:07:16.187Z,42.67
2019-01-29T23:09:45.704Z,44.25
2019-01-29T23:12:15.139Z,46.90
2019-01-29T23:14:44.934Z,45.73
2019-01-29T23:17:14.367Z,45.90
2019-01-29T23:19:43.833Z,50.50
2019-01-29T23:22:13.557Z,48.73
2019-01-29T23:24:42.979Z,53.25
2019-01-29T23:27:12.521Z,53.30
2019-01-29T23:29:43.595Z,55.85
2019-01-29T23:32:13.396Z,52.33
2019-01-29T23:34:42.836Z,52.55
2019-01-29T23:37:12.568Z,51.73
2019-01-29T23:39:42.106Z,55.33
2019-01-29T23:42:11.582Z,52.35
2019-01-29T23:44:41.645Z,56.83
2019-01-29T23:47:11.386Z,52.17
2019-01-29T23:49:40.886Z,51.33
2019-01-29T23:52:10.398Z,49.05
2019-01-29T23:54:40.241Z,59.90
2019-01-29T23:57:09.654Z,53.20
2019-01-29T23:59:39.656Z,54.93
